X  Luk Metar data     EKYT Aalborg Airport
Temperatur
50°F Temperatur
48°F Dugpunkt
94% Fugtighed



Vind
7 MPT
11 KM/T
3 M/S
6 KNOB



290°
VNV
Nuværende forhold

Klart Klart
Tryk 1016.92 (hPa) - 30.03 (inHg)
Sigt 6.2 (mil) - 10 (km)
Lufthavn
Lufthavnskode EKYT

Lokation: Aalborg Airport
Afstand: 54 (mi)

Metar:
EKYT 030550Z AUTO 29006KT 9999 NCD 10/09 Q1017

Tid: 03-10-2022 07:50 CEST